createdAt,value
2022-11-30T00:00:10.179Z,67.20
2022-11-30T00:01:58.646Z,67.20
2022-11-30T00:03:32.200Z,66.80
2022-11-30T00:05:06.730Z,66.80
2022-11-30T00:06:43.719Z,66.90
2022-11-30T00:08:26.954Z,67.20
2022-11-30T00:10:00.196Z,67.40
2022-11-30T00:11:33.906Z,67.00
2022-11-30T00:13:07.312Z,66.50
2022-11-30T00:14:39.775Z,67.00
2022-11-30T00:16:14.033Z,66.70
2022-11-30T00:17:49.050Z,67.00
2022-11-30T00:19:22.450Z,67.00
2022-11-30T00:20:57.326Z,66.80
2022-11-30T00:22:30.544Z,67.80
2022-11-30T00:24:05.776Z,67.10
2022-11-30T00:25:39.406Z,67.00
2022-11-30T00:27:12.812Z,66.80
2022-11-30T00:28:47.763Z,67.20
2022-11-30T00:30:21.473Z,67.30
2022-11-30T00:31:54.832Z,67.50
2022-11-30T00:33:28.951Z,67.00
2022-11-30T00:35:02.577Z,67.30
2022-11-30T00:36:37.582Z,67.30
2022-11-30T00:38:09.865Z,66.90
2022-11-30T00:39:43.389Z,66.90
2022-11-30T00:41:17.818Z,67.20
2022-11-30T00:42:51.347Z,67.70
2022-11-30T00:44:24.909Z,67.20
2022-11-30T00:45:57.962Z,67.00
2022-11-30T00:47:31.345Z,67.50
2022-11-30T00:49:06.130Z,66.90
2022-11-30T00:50:39.711Z,66.50
2022-11-30T00:52:13.070Z,68.00
2022-11-30T00:53:47.709Z,66.80
2022-11-30T00:55:21.104Z,66.90
2022-11-30T00:56:55.944Z,66.80
2022-11-30T00:58:29.248Z,66.50
2022-11-30T01:00:01.595Z,66.90
2022-11-30T01:01:36.254Z,66.50
2022-11-30T01:03:12.545Z,67.00
2022-11-30T01:04:47.909Z,67.10
2022-11-30T01:06:21.468Z,66.70
2022-11-30T01:07:53.730Z,66.90
2022-11-30T01:09:27.091Z,67.20
2022-11-30T01:11:08.969Z,67.20
2022-11-30T01:12:42.349Z,67.60
2022-11-30T01:14:15.637Z,67.30
2022-11-30T01:15:49.012Z,67.20
2022-11-30T01:17:22.675Z,67.90
2022-11-30T01:18:56.798Z,67.10
2022-11-30T01:20:30.531Z,67.50
2022-11-30T01:22:04.039Z,66.90
2022-11-30T01:23:38.109Z,66.80
2022-11-30T01:25:11.647Z,67.10
2022-11-30T01:26:45.025Z,67.00
2022-11-30T01:28:17.520Z,66.80
2022-11-30T01:29:50.877Z,67.70
2022-11-30T01:31:25.952Z,66.70
2022-11-30T01:33:02.889Z,67.40
2022-11-30T01:34:36.316Z,67.60
2022-11-30T01:36:13.694Z,66.80
2022-11-30T01:37:47.016Z,67.50
2022-11-30T01:39:20.448Z,66.90
2022-11-30T01:40:52.885Z,67.10
2022-11-30T01:42:26.281Z,67.20
2022-11-30T01:44:50.122Z,67.20
2022-11-30T01:46:32.745Z,67.70
2022-11-30T01:48:09.585Z,67.80
2022-11-30T01:49:49.332Z,67.50
2022-11-30T01:51:24.197Z,67.40
2022-11-30T01:52:58.748Z,67.20
2022-11-30T01:54:38.374Z,67.60
2022-11-30T01:56:11.953Z,67.40
2022-11-30T01:57:52.331Z,67.20
2022-11-30T01:59:27.618Z,67.40
2022-11-30T02:01:01.583Z,67.30
2022-11-30T02:02:48.622Z,67.00
2022-11-30T02:04:27.309Z,67.30
2022-11-30T02:06:01.925Z,67.30
2022-11-30T02:07:35.935Z,67.40
2022-11-30T02:09:09.784Z,67.10
2022-11-30T02:10:50.354Z,67.30
2022-11-30T02:12:38.713Z,67.60
2022-11-30T02:14:37.624Z,68.40
2022-11-30T02:16:25.265Z,67.70
2022-11-30T02:18:09.543Z,67.70
2022-11-30T02:20:33.296Z,67.60
2022-11-30T02:22:22.351Z,67.70
2022-11-30T02:24:45.582Z,67.50
2022-11-30T02:26:43.311Z,67.70
2022-11-30T02:29:00.475Z,67.60
2022-11-30T02:30:40.679Z,68.40
2022-11-30T02:32:22.809Z,67.50
2022-11-30T02:33:58.534Z,67.50
2022-11-30T02:35:37.297Z,67.50
2022-11-30T02:37:14.317Z,67.40
2022-11-30T02:38:47.165Z,67.60
2022-11-30T02:40:22.530Z,67.30
2022-11-30T02:41:56.215Z,67.30
2022-11-30T02:43:34.218Z,67.20
2022-11-30T02:45:11.774Z,67.70
2022-11-30T02:47:03.069Z,67.60
2022-11-30T02:48:45.140Z,67.80
2022-11-30T02:50:25.137Z,67.80
2022-11-30T02:52:00.044Z,67.50
2022-11-30T02:53:33.320Z,67.40
2022-11-30T02:55:11.862Z,67.20
2022-11-30T02:56:44.281Z,67.70
2022-11-30T02:58:19.677Z,66.70
2022-11-30T02:59:53.311Z,67.40
2022-11-30T03:01:28.209Z,68.20
2022-11-30T03:03:01.696Z,67.30
2022-11-30T03:04:35.086Z,67.20
2022-11-30T03:06:08.570Z,67.20
2022-11-30T03:07:42.046Z,68.30
2022-11-30T03:09:15.392Z,67.00
2022-11-30T03:10:49.059Z,66.70
2022-11-30T03:12:22.585Z,67.20
2022-11-30T03:13:55.137Z,67.20
2022-11-30T03:15:28.848Z,67.60
2022-11-30T03:17:03.703Z,67.40
2022-11-30T03:18:36.879Z,68.20
2022-11-30T03:20:11.393Z,67.60
2022-11-30T03:21:43.714Z,67.60
2022-11-30T03:23:17.430Z,67.30
2022-11-30T03:24:50.880Z,67.30
2022-11-30T03:26:23.376Z,67.30
2022-11-30T03:27:56.833Z,67.40
2022-11-30T03:29:30.984Z,66.90
2022-11-30T03:31:04.994Z,67.10
2022-11-30T03:32:40.631Z,66.90
2022-11-30T03:34:14.224Z,67.30
2022-11-30T03:35:46.738Z,67.50
2022-11-30T03:37:20.182Z,67.20
2022-11-30T03:38:53.577Z,67.10
2022-11-30T03:40:26.978Z,67.00
2022-11-30T03:42:00.341Z,67.00
2022-11-30T03:43:34.393Z,66.80
2022-11-30T03:45:08.711Z,67.60
2022-11-30T03:46:42.217Z,67.50
2022-11-30T03:48:17.040Z,67.00
2022-11-30T03:49:50.377Z,66.90
2022-11-30T03:51:23.833Z,67.00
2022-11-30T03:52:56.336Z,66.90
2022-11-30T03:54:29.776Z,67.10
2022-11-30T03:56:06.525Z,67.40
2022-11-30T03:57:40.059Z,67.70
2022-11-30T03:59:13.545Z,66.60
2022-11-30T04:00:46.031Z,66.90
2022-11-30T04:02:19.482Z,66.40
2022-11-30T04:03:55.315Z,67.10
2022-11-30T04:05:27.776Z,67.70
2022-11-30T04:07:01.191Z,67.20
2022-11-30T04:08:35.605Z,66.40
2022-11-30T04:10:11.221Z,67.30
2022-11-30T04:11:44.919Z,67.20
2022-11-30T04:13:18.803Z,66.90
2022-11-30T04:14:52.262Z,67.30
2022-11-30T04:16:25.626Z,66.20
2022-11-30T04:17:58.171Z,66.50
2022-11-30T04:19:33.541Z,66.80
2022-11-30T04:21:07.385Z,66.60
2022-11-30T04:22:41.011Z,67.50
2022-11-30T04:24:14.451Z,66.80
2022-11-30T04:25:48.118Z,66.50
2022-11-30T04:27:21.629Z,67.10
2022-11-30T04:28:55.296Z,66.70
2022-11-30T04:30:27.891Z,66.20
2022-11-30T04:32:01.407Z,66.30
2022-11-30T04:33:34.098Z,66.60
2022-11-30T04:35:10.533Z,66.80
2022-11-30T04:36:44.144Z,67.40
2022-11-30T04:38:17.066Z,66.10
2022-11-30T04:39:50.586Z,66.80
2022-11-30T04:41:24.020Z,66.30
2022-11-30T04:42:56.536Z,66.10
2022-11-30T04:44:30.185Z,66.40
2022-11-30T04:46:04.907Z,65.60
2022-11-30T04:47:39.308Z,66.40
2022-11-30T04:49:13.136Z,65.80
2022-11-30T04:50:48.509Z,65.50
2022-11-30T04:52:22.042Z,65.40
2022-11-30T04:53:57.310Z,65.30
2022-11-30T04:55:31.235Z,66.30
2022-11-30T04:57:06.495Z,65.40
2022-11-30T04:58:43.100Z,64.60
2022-11-30T05:00:19.614Z,65.70
2022-11-30T05:01:54.338Z,65.70
2022-11-30T05:03:27.891Z,65.10
2022-11-30T05:05:01.243Z,65.70
2022-11-30T05:06:36.228Z,64.90
2022-11-30T05:08:09.966Z,64.90
2022-11-30T05:09:43.458Z,65.20
2022-11-30T05:11:16.918Z,64.80
2022-11-30T05:12:51.361Z,64.90
2022-11-30T05:14:25.117Z,65.00
2022-11-30T05:15:58.798Z,64.80
2022-11-30T05:17:32.177Z,65.10
2022-11-30T05:19:05.836Z,64.80
2022-11-30T05:20:39.373Z,65.10
2022-11-30T05:22:14.378Z,65.20
2022-11-30T05:23:48.972Z,65.00
2022-11-30T05:25:24.419Z,65.30
2022-11-30T05:26:57.840Z,65.00
2022-11-30T05:28:31.415Z,65.10
2022-11-30T05:30:05.879Z,65.40
2022-11-30T05:31:41.002Z,65.60
2022-11-30T05:33:14.764Z,66.10
2022-11-30T05:34:51.139Z,65.50
2022-11-30T05:36:24.184Z,65.40
2022-11-30T05:37:58.968Z,65.40
2022-11-30T05:39:32.275Z,64.90
2022-11-30T05:41:06.352Z,65.10
2022-11-30T05:42:39.850Z,65.20
2022-11-30T05:44:15.047Z,65.00
2022-11-30T05:45:48.431Z,65.50
2022-11-30T05:47:21.788Z,65.20
2022-11-30T05:48:55.145Z,65.60
2022-11-30T05:50:28.586Z,65.20
2022-11-30T05:52:02.041Z,65.60
2022-11-30T05:53:37.346Z,65.10
2022-11-30T05:55:11.089Z,65.30
2022-11-30T05:56:44.585Z,65.50
2022-11-30T05:58:18.045Z,65.60
2022-11-30T05:59:50.596Z,65.60
2022-11-30T06:01:26.892Z,65.30
2022-11-30T06:03:01.139Z,66.30
2022-11-30T06:04:35.324Z,65.30
2022-11-30T06:06:09.129Z,65.70
2022-11-30T06:07:45.496Z,65.70
2022-11-30T06:09:20.256Z,65.50
2022-11-30T06:10:53.822Z,65.10
2022-11-30T06:12:27.596Z,65.40
2022-11-30T06:14:00.985Z,65.40
2022-11-30T06:15:34.626Z,65.50
2022-11-30T06:17:08.906Z,65.40
2022-11-30T06:18:42.432Z,65.70
2022-11-30T06:20:17.099Z,65.00
2022-11-30T06:21:50.697Z,65.70
2022-11-30T06:23:24.362Z,65.20
2022-11-30T06:25:00.330Z,65.40
2022-11-30T06:26:33.838Z,65.20
2022-11-30T06:28:10.810Z,65.30
2022-11-30T06:29:44.161Z,65.00
2022-11-30T06:31:17.932Z,65.10
2022-11-30T06:32:54.222Z,65.70
2022-11-30T06:34:27.823Z,66.10
2022-11-30T06:36:01.264Z,65.30
2022-11-30T06:37:36.082Z,65.70
2022-11-30T06:39:10.064Z,65.80
2022-11-30T06:40:44.988Z,65.60
2022-11-30T06:42:19.621Z,65.70
2022-11-30T06:43:53.018Z,65.40
2022-11-30T06:45:26.756Z,65.40
2022-11-30T06:47:00.103Z,65.10
2022-11-30T06:48:33.946Z,65.20
2022-11-30T06:50:10.635Z,65.60
2022-11-30T06:51:44.551Z,65.70
2022-11-30T06:53:17.862Z,64.90
2022-11-30T06:54:51.539Z,65.40
2022-11-30T06:56:26.140Z,65.90
2022-11-30T06:58:07.191Z,66.40
2022-11-30T06:59:42.280Z,66.10
2022-11-30T07:01:16.672Z,65.60
2022-11-30T07:02:50.038Z,65.60
2022-11-30T07:04:23.671Z,65.50
2022-11-30T07:05:57.347Z,65.60
2022-11-30T07:07:31.559Z,65.50
2022-11-30T07:09:05.339Z,65.50
2022-11-30T07:10:41.759Z,65.50
2022-11-30T07:12:18.260Z,66.00
2022-11-30T07:13:51.787Z,65.30
2022-11-30T07:15:25.291Z,65.40
2022-11-30T07:16:59.193Z,65.50
2022-11-30T07:18:32.854Z,66.00
2022-11-30T07:20:08.313Z,65.20
2022-11-30T07:21:41.604Z,66.00
2022-11-30T07:23:32.403Z,65.50
2022-11-30T07:25:24.994Z,65.80
2022-11-30T07:27:00.481Z,65.80
2022-11-30T07:28:38.946Z,66.10
2022-11-30T07:30:13.898Z,65.80
2022-11-30T07:31:51.574Z,65.90
2022-11-30T07:33:25.248Z,65.80
2022-11-30T07:34:58.550Z,65.50
2022-11-30T07:36:32.358Z,65.10
2022-11-30T07:38:09.797Z,65.50
2022-11-30T07:39:43.336Z,65.20
2022-11-30T07:41:19.743Z,65.30
2022-11-30T07:42:56.888Z,65.40
2022-11-30T07:44:32.830Z,65.30
2022-11-30T07:46:06.923Z,64.80
2022-11-30T07:47:40.210Z,65.60
2022-11-30T07:49:13.719Z,65.60
2022-11-30T07:50:47.620Z,65.30
2022-11-30T07:52:21.111Z,65.70
2022-11-30T07:53:56.918Z,64.50
2022-11-30T07:55:30.609Z,65.20
2022-11-30T07:57:06.623Z,65.40
2022-11-30T07:58:41.538Z,65.30
2022-11-30T08:00:18.091Z,65.80
2022-11-30T08:01:52.022Z,65.90
2022-11-30T08:03:26.622Z,65.70
2022-11-30T08:05:00.437Z,65.20
2022-11-30T08:06:34.404Z,66.00
2022-11-30T08:08:07.869Z,65.10
2022-11-30T08:09:41.717Z,65.70
2022-11-30T08:11:18.702Z,65.20
2022-11-30T08:12:52.731Z,66.10
2022-11-30T08:14:26.060Z,66.30
2022-11-30T08:16:06.861Z,65.40
2022-11-30T08:17:40.428Z,65.90
2022-11-30T08:19:14.229Z,65.60
2022-11-30T08:20:50.172Z,65.30
2022-11-30T08:22:23.794Z,65.20
2022-11-30T08:23:59.789Z,65.30
2022-11-30T08:25:35.419Z,65.80
2022-11-30T08:27:08.977Z,65.90
2022-11-30T08:28:43.647Z,65.40
2022-11-30T08:30:17.610Z,65.80
2022-11-30T08:31:52.621Z,66.10
2022-11-30T08:33:30.606Z,65.60
2022-11-30T08:35:04.571Z,64.80
2022-11-30T08:36:37.937Z,65.70
2022-11-30T08:38:12.792Z,65.50
2022-11-30T08:39:46.268Z,65.20
2022-11-30T08:41:22.807Z,65.30
2022-11-30T08:42:57.286Z,65.80
2022-11-30T08:44:31.058Z,65.70
2022-11-30T08:48:03.384Z,66.00
2022-11-30T08:49:36.721Z,65.40
2022-11-30T08:51:17.514Z,65.60
2022-11-30T08:52:50.979Z,66.00
2022-11-30T08:54:26.309Z,65.10
2022-11-30T08:56:02.691Z,64.80
2022-11-30T08:57:37.033Z,65.80
2022-11-30T08:59:10.731Z,65.00
2022-11-30T09:00:44.824Z,65.00
2022-11-30T09:02:21.992Z,65.10
2022-11-30T09:03:58.145Z,65.10
2022-11-30T09:05:31.570Z,65.80
2022-11-30T09:07:04.985Z,65.00
2022-11-30T09:08:41.001Z,65.20
2022-11-30T09:10:15.151Z,65.10
2022-11-30T09:11:48.668Z,65.70
2022-11-30T09:13:22.115Z,65.30
2022-11-30T09:14:58.383Z,65.20
2022-11-30T09:16:33.111Z,65.20
2022-11-30T09:18:06.681Z,66.00
2022-11-30T09:19:41.648Z,65.10
2022-11-30T09:21:16.942Z,66.20
2022-11-30T09:22:50.353Z,65.90
2022-11-30T09:24:23.807Z,65.40
2022-11-30T09:25:59.049Z,65.30
2022-11-30T09:27:34.145Z,66.10
2022-11-30T09:29:07.712Z,66.00
2022-11-30T09:30:41.365Z,65.00
2022-11-30T09:32:16.146Z,65.00
2022-11-30T09:33:50.836Z,64.80
2022-11-30T09:35:25.810Z,66.00
2022-11-30T09:36:59.421Z,65.30
2022-11-30T09:38:32.906Z,65.30
2022-11-30T09:40:08.839Z,65.20
2022-11-30T09:42:25.652Z,66.00
2022-11-30T09:44:12.718Z,65.90
2022-11-30T09:45:58.187Z,65.40
2022-11-30T09:48:04.565Z,65.50
2022-11-30T09:49:42.565Z,65.90
2022-11-30T09:51:25.687Z,65.70
2022-11-30T09:53:04.871Z,65.50
2022-11-30T09:54:41.967Z,65.60
2022-11-30T09:56:25.522Z,65.70
2022-11-30T09:58:04.063Z,65.90
2022-11-30T09:59:39.625Z,65.80
2022-11-30T10:01:19.640Z,65.50
2022-11-30T10:02:55.426Z,65.90
2022-11-30T10:04:30.974Z,66.00
2022-11-30T10:06:12.486Z,65.90
2022-11-30T10:08:17.695Z,65.70
2022-11-30T10:10:30.213Z,66.00
2022-11-30T10:12:06.364Z,65.80
2022-11-30T10:13:58.142Z,65.80
2022-11-30T10:15:46.378Z,66.10
2022-11-30T10:17:38.377Z,65.70
2022-11-30T10:19:36.741Z,66.20
2022-11-30T10:21:33.454Z,66.30
2022-11-30T10:23:37.242Z,66.40
2022-11-30T10:25:20.391Z,66.20
2022-11-30T10:26:57.678Z,65.90
2022-11-30T10:28:49.669Z,65.70
2022-11-30T10:30:26.243Z,66.30
2022-11-30T10:32:05.466Z,66.00
2022-11-30T10:33:46.535Z,66.00
2022-11-30T10:35:35.078Z,66.00
2022-11-30T10:37:16.194Z,66.20
2022-11-30T10:38:57.172Z,65.90
2022-11-30T10:40:41.587Z,66.10
2022-11-30T10:42:22.270Z,66.30
2022-11-30T10:44:01.501Z,66.40
2022-11-30T10:45:38.680Z,66.50
2022-11-30T10:47:19.683Z,65.70
2022-11-30T10:49:00.690Z,66.30
2022-11-30T10:50:35.160Z,66.50
2022-11-30T10:52:12.612Z,65.80
2022-11-30T10:53:46.805Z,65.90
2022-11-30T10:55:25.336Z,65.40
2022-11-30T10:57:03.485Z,66.30
2022-11-30T10:58:46.305Z,65.80
2022-11-30T11:00:21.095Z,65.90
2022-11-30T11:01:55.150Z,66.20
2022-11-30T11:03:28.996Z,65.90
2022-11-30T11:05:22.427Z,65.60
2022-11-30T11:07:00.720Z,66.50
2022-11-30T11:08:35.494Z,66.00
2022-11-30T11:10:14.852Z,66.10
2022-11-30T11:11:55.774Z,66.50
2022-11-30T11:13:40.585Z,66.20
2022-11-30T11:15:22.257Z,66.50
2022-11-30T11:17:00.160Z,66.50
2022-11-30T11:18:35.093Z,66.40
2022-11-30T11:20:29.304Z,66.30
2022-11-30T11:22:06.709Z,66.50
2022-11-30T11:23:43.568Z,66.30
2022-11-30T11:25:23.849Z,66.10
2022-11-30T11:26:59.429Z,66.20
2022-11-30T11:28:35.512Z,65.60
2022-11-30T11:30:18.848Z,66.90
2022-11-30T11:31:53.122Z,66.00
2022-11-30T11:33:29.416Z,65.40
2022-11-30T11:35:02.769Z,66.10
2022-11-30T11:36:37.001Z,65.60
2022-11-30T11:38:22.818Z,66.10
2022-11-30T11:40:14.328Z,66.50
2022-11-30T11:41:47.982Z,66.50
2022-11-30T11:43:24.691Z,65.40
2022-11-30T11:45:01.472Z,66.00
2022-11-30T11:46:52.989Z,66.30
2022-11-30T11:48:36.316Z,66.10
2022-11-30T11:50:58.292Z,66.40
2022-11-30T11:52:22.597Z,66.30
2022-11-30T11:53:58.632Z,65.50
2022-11-30T11:55:32.018Z,66.30
2022-11-30T11:57:11.131Z,65.40
2022-11-30T11:58:54.202Z,66.10
2022-11-30T12:00:27.907Z,66.20
2022-11-30T12:02:15.306Z,65.30
2022-11-30T12:04:07.219Z,67.10
2022-11-30T12:05:46.697Z,66.40
2022-11-30T12:07:29.797Z,66.20
2022-11-30T12:09:14.772Z,66.40
2022-11-30T12:10:56.566Z,65.90
2022-11-30T12:12:30.609Z,65.90
2022-11-30T12:14:09.425Z,65.60
2022-11-30T12:16:07.079Z,65.60
2022-11-30T12:17:59.848Z,66.40
2022-11-30T12:19:42.639Z,66.30
2022-11-30T12:21:20.131Z,66.40
2022-11-30T12:23:23.877Z,66.20
2022-11-30T12:25:10.650Z,66.10
2022-11-30T12:26:52.219Z,66.40
2022-11-30T12:28:36.840Z,66.10
2022-11-30T12:30:23.130Z,65.50
2022-11-30T12:32:24.437Z,66.10
2022-11-30T12:34:14.117Z,66.30
2022-11-30T12:36:02.180Z,66.20
2022-11-30T12:37:51.837Z,66.40
2022-11-30T12:39:38.901Z,66.40
2022-11-30T12:41:32.602Z,66.00
2022-11-30T12:43:22.957Z,66.60
2022-11-30T12:45:09.099Z,66.30
2022-11-30T12:46:55.265Z,66.10
2022-11-30T12:48:43.566Z,66.50
2022-11-30T12:50:52.204Z,66.20
2022-11-30T12:52:45.740Z,66.50
2022-11-30T12:54:29.794Z,66.60
2022-11-30T12:56:20.774Z,66.30
2022-11-30T12:58:05.837Z,66.40
2022-11-30T12:59:52.690Z,66.50
2022-11-30T13:01:53.219Z,66.50
2022-11-30T13:03:44.795Z,66.40
2022-11-30T13:05:27.177Z,66.60
2022-11-30T13:07:08.691Z,66.40
2022-11-30T13:08:57.222Z,66.40
2022-11-30T13:10:42.319Z,66.60
2022-11-30T13:12:26.798Z,66.50
2022-11-30T13:14:02.096Z,66.40
2022-11-30T13:15:36.773Z,66.40
2022-11-30T13:17:20.325Z,66.10
2022-11-30T13:19:02.523Z,66.40
2022-11-30T13:20:45.215Z,65.90
2022-11-30T13:22:41.419Z,66.10
2022-11-30T13:24:24.921Z,66.10
2022-11-30T13:26:09.871Z,66.40
2022-11-30T13:27:57.980Z,66.10
2022-11-30T13:30:18.231Z,66.20
2022-11-30T13:32:05.554Z,66.30
2022-11-30T13:33:49.262Z,66.20
2022-11-30T13:35:42.779Z,66.20
2022-11-30T13:37:27.248Z,65.50
2022-11-30T13:39:24.222Z,66.10
2022-11-30T13:41:01.162Z,66.40
2022-11-30T13:42:45.008Z,66.10
2022-11-30T13:44:26.346Z,66.20
2022-11-30T13:46:16.636Z,65.90
2022-11-30T13:47:54.956Z,66.20
2022-11-30T13:49:35.695Z,66.10
2022-11-30T13:51:11.660Z,66.20
2022-11-30T13:53:35.933Z,66.00
2022-11-30T13:55:58.858Z,66.30
2022-11-30T13:58:09.024Z,66.30
2022-11-30T13:59:49.955Z,66.40
2022-11-30T14:01:29.965Z,66.30
2022-11-30T14:03:31.428Z,66.50
2022-11-30T14:05:27.234Z,66.40
2022-11-30T14:07:01.561Z,66.20
2022-11-30T14:08:38.536Z,65.50
2022-11-30T14:10:30.040Z,66.10
2022-11-30T14:12:59.978Z,66.10
2022-11-30T14:14:47.086Z,66.50
2022-11-30T14:16:27.303Z,66.30
2022-11-30T14:18:12.286Z,66.00
2022-11-30T14:19:50.214Z,66.00
2022-11-30T14:21:35.075Z,65.90
2022-11-30T14:23:14.263Z,66.10
2022-11-30T14:24:51.196Z,66.00
2022-11-30T14:26:31.427Z,66.30
2022-11-30T14:28:11.714Z,66.30
2022-11-30T14:29:48.295Z,66.20
2022-11-30T14:31:26.938Z,65.70
2022-11-30T14:33:15.241Z,66.30
2022-11-30T14:34:56.887Z,66.40
2022-11-30T14:36:44.520Z,66.30
2022-11-30T14:38:28.279Z,66.50
2022-11-30T14:40:05.849Z,66.30
2022-11-30T14:41:43.207Z,66.00
2022-11-30T14:43:20.156Z,65.90
2022-11-30T14:44:54.363Z,66.20
2022-11-30T14:46:28.943Z,66.00
2022-11-30T14:48:14.628Z,66.20
2022-11-30T14:49:52.074Z,66.40
2022-11-30T14:51:26.588Z,66.30
2022-11-30T14:53:26.778Z,65.70
2022-11-30T14:55:15.877Z,66.90
2022-11-30T14:56:53.443Z,67.10
2022-11-30T14:58:38.925Z,66.70
2022-11-30T15:00:18.847Z,66.80
2022-11-30T15:01:58.200Z,67.70
2022-11-30T15:03:40.663Z,66.70
2022-11-30T15:05:18.574Z,66.80
2022-11-30T15:06:52.221Z,66.80
2022-11-30T15:08:35.368Z,65.90
2022-11-30T15:10:15.456Z,66.40
2022-11-30T15:11:52.186Z,66.70
2022-11-30T15:13:25.695Z,66.80
2022-11-30T15:15:22.776Z,66.30
2022-11-30T15:16:58.236Z,66.80
2022-11-30T15:18:31.579Z,66.70
2022-11-30T15:20:18.962Z,65.40
2022-11-30T15:21:54.481Z,66.50
2022-11-30T15:23:29.420Z,66.70
2022-11-30T15:25:02.993Z,66.10
2022-11-30T15:26:54.636Z,65.90
2022-11-30T15:28:35.118Z,66.60
2022-11-30T15:30:15.527Z,66.60
2022-11-30T15:31:54.205Z,66.90
2022-11-30T15:33:36.903Z,66.80
2022-11-30T15:35:24.423Z,66.80
2022-11-30T15:37:00.646Z,66.90
2022-11-30T15:38:35.663Z,66.80
2022-11-30T15:40:15.668Z,66.80
2022-11-30T15:41:54.862Z,66.70
2022-11-30T15:43:31.499Z,66.70
2022-11-30T15:45:20.487Z,66.70
2022-11-30T15:47:01.005Z,66.70
2022-11-30T15:48:39.715Z,66.50
2022-11-30T15:50:38.051Z,66.70
2022-11-30T15:52:18.992Z,66.70
2022-11-30T15:53:54.125Z,66.20
2022-11-30T15:55:41.933Z,65.40
2022-11-30T15:57:17.065Z,66.60
2022-11-30T15:59:03.494Z,66.20
2022-11-30T16:00:37.066Z,66.20
2022-11-30T16:02:29.449Z,66.00
2022-11-30T16:04:07.921Z,66.50
2022-11-30T16:06:02.914Z,66.30
2022-11-30T16:07:49.025Z,64.70
2022-11-30T16:09:32.711Z,65.70
2022-11-30T16:11:08.240Z,65.80
2022-11-30T16:12:45.468Z,65.30
2022-11-30T16:14:27.285Z,65.70
2022-11-30T16:16:03.603Z,65.00
2022-11-30T16:17:39.388Z,65.00
2022-11-30T16:19:14.131Z,64.90
2022-11-30T16:20:54.271Z,65.00
2022-11-30T16:22:33.822Z,65.60
2022-11-30T16:24:18.105Z,65.40
2022-11-30T16:26:10.442Z,65.70
2022-11-30T16:28:04.074Z,66.00
2022-11-30T16:29:45.055Z,65.70
2022-11-30T16:31:22.941Z,65.30
2022-11-30T16:33:00.645Z,65.60
2022-11-30T16:34:35.076Z,65.00
2022-11-30T16:36:23.625Z,65.20
2022-11-30T16:38:03.013Z,65.70
2022-11-30T16:39:39.629Z,65.70
2022-11-30T16:41:38.109Z,65.10
2022-11-30T16:43:13.988Z,65.70
2022-11-30T16:44:53.551Z,66.00
2022-11-30T16:46:31.523Z,65.10
2022-11-30T16:48:08.202Z,65.70
2022-11-30T16:49:41.742Z,65.60
2022-11-30T16:51:22.762Z,65.10
2022-11-30T16:52:56.528Z,65.70
2022-11-30T16:54:30.384Z,64.80
2022-11-30T16:56:03.935Z,64.90
2022-11-30T16:57:39.334Z,65.00
2022-11-30T16:59:16.609Z,65.20
2022-11-30T17:00:50.701Z,65.20
2022-11-30T17:02:24.981Z,65.00
2022-11-30T17:03:58.761Z,65.10
2022-11-30T17:05:33.821Z,65.10
2022-11-30T17:07:08.175Z,65.60
2022-11-30T17:08:42.118Z,65.20
2022-11-30T17:10:16.433Z,64.60
2022-11-30T17:11:51.676Z,65.00
2022-11-30T17:13:27.736Z,65.60
2022-11-30T17:15:01.572Z,65.50
2022-11-30T17:16:36.227Z,64.50
2022-11-30T17:18:10.095Z,65.00
2022-11-30T17:19:43.824Z,64.50
2022-11-30T17:21:23.172Z,64.70
2022-11-30T17:22:57.311Z,65.70
2022-11-30T17:24:32.290Z,65.40
2022-11-30T17:26:06.372Z,64.70
2022-11-30T17:27:39.977Z,64.90
2022-11-30T17:29:15.392Z,65.00
2022-11-30T17:30:49.029Z,64.20
2022-11-30T17:32:22.958Z,64.80
2022-11-30T17:33:56.536Z,64.50
2022-11-30T17:35:30.426Z,64.90
2022-11-30T17:37:04.121Z,64.80
2022-11-30T17:38:38.404Z,64.50
2022-11-30T17:40:15.424Z,65.50
2022-11-30T17:41:49.230Z,65.70
2022-11-30T17:43:25.578Z,65.40
2022-11-30T17:45:11.158Z,64.80
2022-11-30T17:46:51.618Z,66.10
2022-11-30T17:48:25.450Z,65.00
2022-11-30T17:49:59.358Z,65.30
2022-11-30T17:51:40.643Z,65.00
2022-11-30T17:53:18.270Z,66.10
2022-11-30T17:54:52.227Z,65.00
2022-11-30T17:56:26.501Z,65.30
2022-11-30T17:58:00.575Z,65.40
2022-11-30T17:59:34.215Z,65.20
2022-11-30T18:01:19.518Z,65.40
2022-11-30T18:02:56.022Z,66.10
2022-11-30T18:04:29.585Z,65.60
2022-11-30T18:06:11.038Z,65.10
2022-11-30T18:07:44.508Z,65.90
2022-11-30T18:09:18.297Z,65.00
2022-11-30T18:11:01.401Z,65.20
2022-11-30T18:12:35.057Z,65.30
2022-11-30T18:14:09.340Z,65.40
2022-11-30T18:15:42.879Z,66.10
2022-11-30T18:17:20.498Z,65.90
2022-11-30T18:18:56.345Z,64.80
2022-11-30T18:20:30.626Z,66.30
2022-11-30T18:22:04.112Z,66.30
2022-11-30T18:23:40.670Z,65.30
2022-11-30T18:25:15.496Z,65.50
2022-11-30T18:26:49.571Z,65.70
2022-11-30T18:28:23.115Z,65.20
2022-11-30T18:29:57.247Z,65.10
2022-11-30T18:31:32.418Z,65.50
2022-11-30T18:33:10.273Z,65.20
2022-11-30T18:34:49.072Z,66.40
2022-11-30T18:36:25.173Z,65.40
2022-11-30T18:38:00.040Z,65.30
2022-11-30T18:39:39.391Z,64.90
2022-11-30T18:41:12.976Z,65.50
2022-11-30T18:42:51.445Z,64.80
2022-11-30T18:44:25.160Z,65.70
2022-11-30T18:46:04.187Z,65.30
2022-11-30T18:47:37.952Z,66.20
2022-11-30T18:49:13.861Z,64.90
2022-11-30T18:50:50.092Z,65.20
2022-11-30T18:52:31.137Z,65.40
2022-11-30T18:54:10.512Z,65.20
2022-11-30T18:55:45.161Z,66.20
2022-11-30T18:57:27.347Z,65.30
2022-11-30T18:59:11.404Z,65.70
2022-11-30T19:00:50.963Z,65.40
2022-11-30T19:02:24.638Z,64.90
2022-11-30T19:04:00.824Z,65.20
2022-11-30T19:05:40.057Z,66.40
2022-11-30T19:07:14.493Z,66.30
2022-11-30T19:08:50.022Z,65.10
2022-11-30T19:10:24.878Z,66.70
2022-11-30T19:12:00.261Z,65.20
2022-11-30T19:13:34.548Z,65.20
2022-11-30T19:15:09.353Z,65.90
2022-11-30T19:16:44.034Z,66.30
2022-11-30T19:18:21.856Z,66.50
2022-11-30T19:19:57.162Z,66.00
2022-11-30T19:21:32.291Z,65.30
2022-11-30T19:23:05.803Z,65.60
2022-11-30T19:24:42.412Z,65.30
2022-11-30T19:26:16.883Z,65.70
2022-11-30T19:27:50.463Z,65.40
2022-11-30T19:29:24.089Z,65.40
2022-11-30T19:31:01.545Z,65.40
2022-11-30T19:32:35.097Z,66.40
2022-11-30T19:34:12.495Z,65.30
2022-11-30T19:35:48.521Z,65.40
2022-11-30T19:37:26.606Z,64.40
2022-11-30T19:39:01.919Z,65.00
2022-11-30T19:40:39.556Z,65.80
2022-11-30T19:42:13.353Z,65.70
2022-11-30T19:43:54.768Z,65.50
2022-11-30T19:45:29.395Z,65.90
2022-11-30T19:47:04.188Z,66.10
2022-11-30T19:48:39.319Z,65.40
2022-11-30T19:50:13.179Z,66.70
2022-11-30T19:51:46.714Z,65.80
2022-11-30T19:53:24.317Z,65.10
2022-11-30T19:55:03.021Z,65.80
2022-11-30T19:56:38.841Z,66.20
2022-11-30T19:58:12.303Z,65.40
2022-11-30T19:59:46.977Z,65.80
2022-11-30T20:01:23.994Z,65.60
2022-11-30T20:03:00.683Z,66.00
2022-11-30T20:04:40.599Z,66.10
2022-11-30T20:06:14.668Z,65.10
2022-11-30T20:07:54.502Z,64.90
2022-11-30T20:09:30.185Z,64.40
2022-11-30T20:11:07.750Z,65.00
2022-11-30T20:12:46.441Z,66.10
2022-11-30T20:14:22.693Z,65.10
2022-11-30T20:15:56.547Z,65.80
2022-11-30T20:17:30.368Z,64.90
2022-11-30T20:19:20.772Z,65.00
2022-11-30T20:20:54.531Z,64.80
2022-11-30T20:22:28.179Z,65.40
2022-11-30T20:24:06.272Z,64.50
2022-11-30T20:25:44.841Z,65.80
2022-11-30T20:27:22.725Z,65.00
2022-11-30T20:28:56.958Z,65.70
2022-11-30T20:30:33.968Z,65.20
2022-11-30T20:32:08.180Z,65.90
2022-11-30T20:33:42.609Z,64.80
2022-11-30T20:35:16.502Z,65.40
2022-11-30T20:36:50.325Z,65.50
2022-11-30T20:38:24.385Z,64.80
2022-11-30T20:39:58.209Z,65.20
2022-11-30T20:41:34.117Z,65.50
2022-11-30T20:43:12.833Z,65.50
2022-11-30T20:44:46.714Z,65.20
2022-11-30T20:46:23.543Z,65.00
2022-11-30T20:47:57.985Z,66.20
2022-11-30T20:49:35.395Z,65.20
2022-11-30T20:51:30.229Z,65.40
2022-11-30T20:53:05.965Z,66.20
2022-11-30T20:54:40.419Z,65.30
2022-11-30T20:56:16.555Z,65.70
2022-11-30T20:57:51.909Z,66.00
2022-11-30T20:59:29.328Z,65.00
2022-11-30T21:01:12.689Z,65.90
2022-11-30T21:02:49.687Z,65.50
2022-11-30T21:04:25.981Z,64.90
2022-11-30T21:06:00.494Z,66.30
2022-11-30T21:07:34.013Z,65.20